createdAt,value
2018-08-09T00:00:06.867Z,97501.67
2018-08-09T00:02:42.995Z,97504.11
2018-08-09T00:05:21.104Z,97504.09
2018-08-09T00:07:56.965Z,97505.41
2018-08-09T00:10:32.610Z,97503.83
2018-08-09T00:13:11.326Z,97504.88
2018-08-09T00:15:48.173Z,97503.30
2018-08-09T00:18:22.642Z,97510.02
2018-08-09T00:21:01.842Z,97504.33
2018-08-09T00:23:43.046Z,97514.52
2018-08-09T00:26:22.479Z,97506.47
2018-08-09T00:29:03.608Z,97513.74
2018-08-09T00:34:48.729Z,97516.39
2018-08-09T00:37:33.391Z,97509.42
2018-08-09T00:43:24.939Z,97515.32
2018-08-09T00:58:34.598Z,97503.27
2018-08-09T01:01:12.104Z,97504.61
2018-08-09T01:03:47.533Z,97501.64
2018-08-09T01:06:26.703Z,97504.84
2018-08-09T01:09:11.027Z,97504.02
2018-08-09T01:11:48.943Z,97499.73
2018-08-09T01:14:27.136Z,97504.52
2018-08-09T01:16:59.915Z,97498.87
2018-08-09T01:19:36.785Z,97499.42
2018-08-09T01:22:13.263Z,97499.54
2018-08-09T01:24:54.378Z,97503.31
2018-08-09T01:27:28.750Z,97503.58
2018-08-09T01:30:09.153Z,97504.46
2018-08-09T01:32:43.238Z,97496.39
2018-08-09T01:35:17.459Z,97491.28
2018-08-09T01:37:56.911Z,97494.49
2018-08-09T01:40:32.103Z,97495.52
2018-08-09T01:43:20.993Z,97490.96
2018-08-09T01:45:54.904Z,97498.30
2018-08-09T01:48:28.596Z,97494.53
2018-08-09T01:51:05.034Z,97503.19
2018-08-09T01:53:43.119Z,97503.91
2018-08-09T01:56:20.066Z,97503.56
2018-08-09T01:58:58.405Z,97500.63
2018-08-09T02:01:37.231Z,97505.75
2018-08-09T02:04:10.001Z,97502.80
2018-08-09T02:06:45.657Z,97503.91
2018-08-09T02:09:23.574Z,97506.28
2018-08-09T02:12:00.388Z,97500.86
2018-08-09T02:14:33.996Z,97501.63
2018-08-09T02:17:06.858Z,97505.30
2018-08-09T02:19:44.797Z,97511.44
2018-08-09T02:22:25.570Z,97503.16
2018-08-09T02:25:03.109Z,97506.98
2018-08-09T02:27:43.422Z,97509.32
2018-08-09T02:30:16.705Z,97507.20
2018-08-09T02:32:58.950Z,97510.45
2018-08-09T02:35:34.703Z,97505.08
2018-08-09T02:38:10.123Z,97502.12
2018-08-09T02:40:43.617Z,97509.06
2018-08-09T02:46:05.776Z,97504.48
2018-08-09T02:48:45.635Z,97505.04
2018-08-09T02:51:19.821Z,97510.68
2018-08-09T02:53:53.151Z,97509.84
2018-08-09T02:56:31.617Z,97502.38
2018-08-09T02:59:08.540Z,97506.70
2018-08-09T03:01:45.635Z,97510.66
2018-08-09T03:04:17.271Z,97507.73
2018-08-09T03:06:53.835Z,97506.16
2018-08-09T03:09:28.398Z,97499.44
2018-08-09T03:12:10.468Z,97501.94
2018-08-09T03:14:53.301Z,97500.64
2018-08-09T03:17:29.175Z,97504.48
2018-08-09T03:20:08.477Z,97502.67
2018-08-09T03:22:47.928Z,97504.25
2018-08-09T03:28:05.580Z,97507.58
2018-08-09T03:30:46.813Z,97509.63
2018-08-09T03:33:24.541Z,97508.66
2018-08-09T03:36:08.307Z,97509.36
2018-08-09T03:38:44.459Z,97511.57
2018-08-09T03:41:17.998Z,97520.77
2018-08-09T03:43:53.706Z,97520.77
2018-08-09T03:46:30.068Z,97523.28
2018-08-09T03:49:05.870Z,97526.81
2018-08-09T03:51:42.407Z,97524.77
2018-08-09T03:54:21.541Z,97524.58
2018-08-09T03:56:57.209Z,97525.56
2018-08-09T03:59:32.174Z,97530.63
2018-08-09T04:02:03.454Z,97531.41
2018-08-09T04:04:45.587Z,97537.64
2018-08-09T04:07:24.638Z,97540.07
2018-08-09T04:10:03.769Z,97543.02
2018-08-09T04:12:44.488Z,97540.07
2018-08-09T04:15:27.924Z,97549.00
2018-08-09T04:18:05.640Z,97551.95
2018-08-09T04:20:42.915Z,97550.45
2018-08-09T04:23:22.223Z,97548.06
2018-08-09T04:25:57.964Z,97551.27
2018-08-09T04:28:34.789Z,97551.62
2018-08-09T04:31:15.195Z,97549.21
2018-08-09T04:33:49.040Z,97549.10
2018-08-09T04:39:01.988Z,97542.34
2018-08-09T04:41:39.827Z,97540.86
2018-08-09T04:44:14.944Z,97540.67
2018-08-09T04:46:53.229Z,97539.98
2018-08-09T04:49:32.569Z,97531.70
2018-08-09T04:52:08.403Z,97534.10
2018-08-09T04:54:41.093Z,97534.89
2018-08-09T04:57:23.071Z,97537.03
2018-08-09T05:02:40.048Z,97527.95
2018-08-09T05:05:14.765Z,97534.98
2018-08-09T05:07:51.984Z,97532.28
2018-08-09T05:10:32.790Z,97539.75
2018-08-09T05:13:12.012Z,97539.41
2018-08-09T05:15:47.315Z,97544.70
2018-08-09T05:21:06.419Z,97546.10
2018-08-09T05:23:40.755Z,97545.83
2018-08-09T05:26:15.753Z,97552.02
2018-08-09T05:28:50.392Z,97550.30
2018-08-09T05:31:25.017Z,97551.48
2018-08-09T05:34:06.124Z,97559.22
2018-08-09T05:42:12.252Z,97562.14
2018-08-09T05:44:49.168Z,97560.45
2018-08-09T05:47:29.077Z,97564.66
2018-08-09T05:50:10.474Z,97564.07
2018-08-09T05:52:46.792Z,97565.45
2018-08-09T05:55:27.179Z,97559.13
2018-08-09T05:58:02.658Z,97564.21
2018-08-09T06:00:42.060Z,97556.84
2018-08-09T06:03:18.514Z,97557.17
2018-08-09T06:05:54.898Z,97560.54
2018-08-09T06:08:32.958Z,97562.94
2018-08-09T06:11:05.908Z,97556.52
2018-08-09T06:13:45.521Z,97557.95
2018-08-09T06:16:23.461Z,97561.92
2018-08-09T06:19:03.378Z,97560.30
2018-08-09T06:21:42.241Z,97566.77
2018-08-09T06:27:08.680Z,97568.66
2018-08-09T06:29:46.830Z,97571.24
2018-08-09T06:32:25.231Z,97568.05
2018-08-09T06:35:04.531Z,97570.72
2018-08-09T06:37:45.045Z,97570.48
2018-08-09T06:40:24.968Z,97575.13
2018-08-09T06:43:06.263Z,97574.43
2018-08-09T06:45:49.485Z,97572.98
2018-08-09T06:48:26.160Z,97582.23
2018-08-09T06:51:04.679Z,97576.86
2018-08-09T06:53:42.910Z,97580.38
2018-08-09T06:56:16.568Z,97579.56
2018-08-09T06:58:53.836Z,97581.84
2018-08-09T07:01:35.185Z,97579.65
2018-08-09T07:04:20.368Z,97578.85
2018-08-09T07:06:57.537Z,97585.98
2018-08-09T07:09:41.742Z,97586.23
2018-08-09T07:12:27.292Z,97581.62
2018-08-09T07:15:11.134Z,97579.71
2018-08-09T07:17:48.921Z,97574.86
2018-08-09T07:20:28.255Z,97581.22
2018-08-09T07:23:05.340Z,97581.89
2018-08-09T07:25:40.172Z,97583.36
2018-08-09T07:28:20.163Z,97584.97
2018-08-09T07:30:59.374Z,97587.07
2018-08-09T07:33:37.991Z,97589.55
2018-08-09T07:36:14.756Z,97588.58
2018-08-09T07:38:55.211Z,97592.09
2018-08-09T07:41:31.051Z,97586.98
2018-08-09T07:44:16.050Z,97587.53
2018-08-09T07:46:52.940Z,97583.30
2018-08-09T07:49:31.388Z,97584.18
2018-08-09T07:52:09.339Z,97582.31
2018-08-09T07:54:47.353Z,97588.15
2018-08-09T07:57:30.107Z,97588.14
2018-08-09T08:00:06.847Z,97587.25
2018-08-09T08:02:51.815Z,97590.20
2018-08-09T08:05:26.876Z,97591.84
2018-08-09T08:08:09.853Z,97591.41
2018-08-09T08:10:51.418Z,97579.97
2018-08-09T08:13:28.036Z,97588.06
2018-08-09T08:16:05.013Z,97584.33
2018-08-09T08:18:40.455Z,97578.72
2018-08-09T08:21:16.347Z,97579.02
2018-08-09T08:23:49.712Z,97578.16
2018-08-09T08:26:27.288Z,97578.26
2018-08-09T08:29:05.197Z,97579.61
2018-08-09T08:31:44.136Z,97586.23
2018-08-09T08:34:20.070Z,97582.08
2018-08-09T08:36:54.684Z,97587.41
2018-08-09T08:39:34.383Z,97582.08
2018-08-09T08:42:19.910Z,97582.11
2018-08-09T08:47:49.494Z,97585.11
2018-08-09T08:50:25.749Z,97581.83
2018-08-09T08:55:43.848Z,97580.38
2018-08-09T08:58:22.590Z,97579.58
2018-08-09T09:00:58.720Z,97578.05
2018-08-09T09:03:41.062Z,97577.30
2018-08-09T09:06:23.269Z,97577.37
2018-08-09T09:09:03.968Z,97583.23
2018-08-09T09:11:43.102Z,97577.72
2018-08-09T09:14:21.100Z,97582.17
2018-08-09T09:16:58.272Z,97578.73
2018-08-09T09:19:36.779Z,97577.43
2018-08-09T09:22:16.643Z,97575.82
2018-08-09T09:24:51.642Z,97573.20
2018-08-09T09:27:36.556Z,97572.34
2018-08-09T09:38:21.964Z,97554.96
2018-08-09T09:41:04.145Z,97559.61
2018-08-09T09:46:22.032Z,97560.28
2018-08-09T09:49:01.391Z,97562.20
2018-08-09T09:51:42.860Z,97557.25
2018-08-09T09:54:17.615Z,97557.61
2018-08-09T09:56:54.796Z,97555.70
2018-08-09T09:59:31.391Z,97552.67
2018-08-09T10:02:14.849Z,97555.40
2018-08-09T10:04:53.842Z,97552.41
2018-08-09T10:07:31.836Z,97540.69
2018-08-09T10:10:09.068Z,97548.81
2018-08-09T10:12:50.991Z,97542.31
2018-08-09T10:15:23.591Z,97541.11
2018-08-09T10:20:41.059Z,97544.38
2018-08-09T10:23:18.439Z,97540.82
2018-08-09T10:25:54.584Z,97542.13
2018-08-09T10:28:36.932Z,97539.52
2018-08-09T10:34:04.665Z,97538.13
2018-08-09T10:36:44.693Z,97530.76
2018-08-09T10:39:28.581Z,97523.69
2018-08-09T10:42:08.022Z,97520.27
2018-08-09T10:47:33.510Z,97516.77
2018-08-09T10:50:12.690Z,97511.14
2018-08-09T10:52:49.361Z,97514.30
2018-08-09T10:55:21.744Z,97510.07
2018-08-09T10:58:03.119Z,97507.87
2018-08-09T11:00:45.924Z,97509.69
2018-08-09T11:03:27.825Z,97503.41
2018-08-09T11:06:05.513Z,97507.87
2018-08-09T11:08:43.754Z,97509.21
2018-08-09T11:11:21.591Z,97506.14
2018-08-09T11:13:58.816Z,97502.16
2018-08-09T11:16:34.256Z,97502.94
2018-08-09T11:19:14.890Z,97499.66
2018-08-09T11:21:54.626Z,97499.55
2018-08-09T11:24:31.366Z,97495.46
2018-08-09T11:27:06.406Z,97493.28
2018-08-09T11:29:45.683Z,97490.34
2018-08-09T11:32:23.898Z,97486.55
2018-08-09T11:35:01.031Z,97488.11
2018-08-09T11:37:41.533Z,97487.21
2018-08-09T11:40:18.304Z,97485.05
2018-08-09T11:42:58.571Z,97488.14
2018-08-09T11:48:23.422Z,97482.43
2018-08-09T11:51:10.968Z,97488.00
2018-08-09T11:53:47.550Z,97479.02
2018-08-09T11:56:23.036Z,97472.09
2018-08-09T11:59:00.428Z,97462.61
2018-08-09T12:01:37.620Z,97475.53
2018-08-09T12:04:15.054Z,97476.70
2018-08-09T12:06:51.024Z,97472.89
2018-08-09T12:09:27.987Z,97470.32
2018-08-09T12:12:06.028Z,97468.36
2018-08-09T12:14:42.564Z,97469.33
2018-08-09T12:17:27.228Z,97462.89
2018-08-09T12:20:10.382Z,97460.20
2018-08-09T12:22:45.103Z,97462.61
2018-08-09T12:30:50.958Z,97456.53
2018-08-09T12:33:31.967Z,97448.54
2018-08-09T12:36:09.057Z,97440.94
2018-08-09T12:38:51.857Z,97441.37
2018-08-09T12:41:34.319Z,97440.20
2018-08-09T12:44:14.542Z,97436.24
2018-08-09T12:49:32.395Z,97435.09
2018-08-09T12:52:12.101Z,97429.03
2018-08-09T12:54:48.670Z,97429.13
2018-08-09T12:57:21.861Z,97431.92
2018-08-09T13:02:50.572Z,97415.47
2018-08-09T13:05:28.184Z,97414.02
2018-08-09T13:08:04.529Z,97407.50
2018-08-09T13:10:40.968Z,97406.95
2018-08-09T13:13:18.609Z,97406.33
2018-08-09T13:15:59.926Z,97408.53
2018-08-09T13:21:22.015Z,97398.91
2018-08-09T13:23:59.605Z,97396.88
2018-08-09T13:26:34.502Z,97386.50
2018-08-09T13:29:13.224Z,97382.41
2018-08-09T13:31:51.628Z,97387.52
2018-08-09T13:34:29.693Z,97387.59
2018-08-09T13:37:10.508Z,97391.48
2018-08-09T13:39:45.867Z,97382.51
2018-08-09T13:42:25.343Z,97371.86
2018-08-09T13:45:04.176Z,97374.30
2018-08-09T13:47:40.377Z,97365.41
2018-08-09T13:50:19.564Z,97362.81
2018-08-09T13:52:56.368Z,97369.08
2018-08-09T13:55:30.013Z,97364.03
2018-08-09T13:58:09.329Z,97362.28
2018-08-09T14:00:46.105Z,97363.30
2018-08-09T14:03:21.169Z,97366.18
2018-08-09T14:05:55.968Z,97360.81
2018-08-09T14:11:14.270Z,97352.52
2018-08-09T14:13:53.081Z,97353.25
2018-08-09T14:16:31.898Z,97345.45
2018-08-09T14:19:08.602Z,97339.55
2018-08-09T14:21:46.891Z,97352.36
2018-08-09T14:24:29.071Z,97344.74
2018-08-09T14:27:15.146Z,97348.30
2018-08-09T14:29:57.983Z,97347.48
2018-08-09T14:35:19.544Z,97342.42
2018-08-09T14:37:54.676Z,97341.05
2018-08-09T14:43:16.994Z,97335.71
2018-08-09T14:45:54.765Z,97334.14
2018-08-09T14:51:12.815Z,97329.77
2018-08-09T14:53:53.058Z,97331.47
2018-08-09T14:56:28.121Z,97328.49
2018-08-09T14:59:07.062Z,97319.22
2018-08-09T15:01:48.972Z,97317.50
2018-08-09T15:04:28.974Z,97318.06
2018-08-09T15:07:11.596Z,97314.12
2018-08-09T15:09:49.499Z,97317.59
2018-08-09T15:12:30.251Z,97317.77
2018-08-09T15:15:12.880Z,97326.39
2018-08-09T15:17:52.052Z,97312.21
2018-08-09T15:20:31.241Z,97305.78
2018-08-09T15:23:17.351Z,97307.08
2018-08-09T15:25:55.258Z,97307.38
2018-08-09T15:28:28.864Z,97307.22
2018-08-09T15:31:06.363Z,97307.66
2018-08-09T15:33:48.022Z,97310.67
2018-08-09T15:36:28.384Z,97306.16
2018-08-09T15:39:08.033Z,97301.59
2018-08-09T15:41:54.340Z,97303.19
2018-08-09T15:44:32.967Z,97307.93
2018-08-09T15:47:09.595Z,97311.95
2018-08-09T15:49:50.614Z,97310.47
2018-08-09T15:52:27.774Z,97308.39
2018-08-09T15:55:04.731Z,97316.30
2018-08-09T15:57:39.982Z,97316.33
2018-08-09T16:00:19.458Z,97313.42
2018-08-09T16:03:01.040Z,97310.07
2018-08-09T16:05:39.977Z,97308.75
2018-08-09T16:08:19.728Z,97303.36
2018-08-09T16:10:57.888Z,97303.31
2018-08-09T16:13:40.213Z,97301.27
2018-08-09T16:16:18.711Z,97305.28
2018-08-09T16:18:58.696Z,97301.92
2018-08-09T16:21:31.361Z,97305.48
2018-08-09T16:24:09.522Z,97305.66
2018-08-09T16:29:28.421Z,97306.73
2018-08-09T16:32:04.804Z,97307.73
2018-08-09T16:34:41.284Z,97304.42
2018-08-09T16:37:15.266Z,97308.88
2018-08-09T16:39:53.767Z,97317.23
2018-08-09T16:42:29.858Z,97315.23
2018-08-09T16:45:09.078Z,97323.48
2018-08-09T16:50:34.826Z,97329.04
2018-08-09T16:53:15.280Z,97326.41
2018-08-09T16:55:56.552Z,97329.69
2018-08-09T16:58:31.645Z,97327.69
2018-08-09T17:01:16.078Z,97326.71
2018-08-09T17:03:53.593Z,97326.92
2018-08-09T17:06:36.670Z,97324.31
2018-08-09T17:09:18.746Z,97329.86
2018-08-09T17:12:02.553Z,97327.64
2018-08-09T17:14:40.084Z,97326.70
2018-08-09T17:17:14.135Z,97331.03
2018-08-09T17:19:51.718Z,97339.47
2018-08-09T17:22:26.245Z,97340.83
2018-08-09T17:25:02.946Z,97339.52
2018-08-09T17:27:37.468Z,97337.67
2018-08-09T17:30:15.125Z,97345.14
2018-08-09T17:32:50.600Z,97345.83
2018-08-09T17:35:28.055Z,97343.81
2018-08-09T17:38:08.367Z,97345.70
2018-08-09T17:40:43.305Z,97350.02
2018-08-09T17:43:23.807Z,97358.27
2018-08-09T17:46:00.660Z,97353.66
2018-08-09T17:48:38.972Z,97354.20
2018-08-09T17:51:13.301Z,97352.47
2018-08-09T17:53:49.863Z,97348.53
2018-08-09T17:56:24.178Z,97351.39
2018-08-09T17:58:58.709Z,97353.52
2018-08-09T18:01:39.271Z,97349.01
2018-08-09T18:04:16.983Z,97357.44
2018-08-09T18:06:59.104Z,97355.06
2018-08-09T18:09:36.121Z,97355.22
2018-08-09T18:12:16.442Z,97359.83
2018-08-09T18:14:57.192Z,97359.73
2018-08-09T18:17:37.134Z,97365.23
2018-08-09T18:20:20.044Z,97371.70
2018-08-09T18:23:01.874Z,97373.59
2018-08-09T18:25:39.016Z,97371.96
2018-08-09T18:28:21.445Z,97372.98
2018-08-09T18:30:58.826Z,97388.43
2018-08-09T18:33:40.830Z,97391.33
2018-08-09T18:36:19.163Z,97393.09
2018-08-09T18:38:56.746Z,97393.81
2018-08-09T18:44:19.722Z,97394.02
2018-08-09T18:46:52.080Z,97398.29
2018-08-09T18:49:32.540Z,97408.92
2018-08-09T18:52:09.438Z,97408.66
2018-08-09T18:57:28.511Z,97406.70
2018-08-09T19:02:47.241Z,97419.97
2018-08-09T19:05:26.629Z,97426.91
2018-08-09T19:08:06.999Z,97425.87
2018-08-09T19:10:46.655Z,97425.66
2018-08-09T19:13:28.770Z,97429.34
2018-08-09T19:16:02.356Z,97430.89
2018-08-09T19:18:44.054Z,97433.61
2018-08-09T19:21:23.189Z,97437.34
2018-08-09T19:24:09.699Z,97437.11
2018-08-09T19:26:45.210Z,97433.63
2018-08-09T19:29:23.103Z,97439.59
2018-08-09T19:32:02.750Z,97438.71
2018-08-09T19:34:41.324Z,97439.45
2018-08-09T19:37:18.782Z,97443.30
2018-08-09T19:39:55.660Z,97443.06
2018-08-09T19:45:17.999Z,97443.30
2018-08-09T19:47:59.726Z,97444.87
2018-08-09T19:50:41.636Z,97451.81
2018-08-09T19:56:10.821Z,97444.31
2018-08-09T19:58:56.751Z,97443.92
2018-08-09T20:04:13.650Z,97439.08
2018-08-09T20:06:53.319Z,97445.13
2018-08-09T20:09:32.998Z,97447.66
2018-08-09T20:12:12.460Z,97444.38
2018-08-09T20:20:11.741Z,97443.09
2018-08-09T20:22:51.861Z,97441.57
2018-08-09T20:25:33.582Z,97437.14
2018-08-09T20:28:08.597Z,97441.77
2018-08-09T20:30:47.740Z,97450.38
2018-08-09T20:33:22.698Z,97452.52
2018-08-09T20:38:43.174Z,97459.06
2018-08-09T20:41:25.763Z,97461.26
2018-08-09T20:43:58.973Z,97467.38
2018-08-09T20:46:36.450Z,97463.89
2018-08-09T20:49:15.189Z,97467.40
2018-08-09T20:51:54.561Z,97471.51
2018-08-09T20:54:34.283Z,97467.91
2018-08-09T20:57:07.562Z,97469.70
2018-08-09T20:59:41.197Z,97461.73
2018-08-09T21:02:15.388Z,97459.77
2018-08-09T21:04:53.533Z,97466.44
2018-08-09T21:07:31.101Z,97465.73
2018-08-09T21:10:09.303Z,97472.67
2018-08-09T21:12:46.903Z,97476.22
2018-08-09T21:15:30.916Z,97480.00
2018-08-09T21:18:09.654Z,97486.42
2018-08-09T21:20:53.025Z,97489.17
2018-08-09T21:23:27.666Z,97490.88
2018-08-09T21:26:06.380Z,97494.19
2018-08-09T21:28:44.497Z,97492.16
2018-08-09T21:31:17.856Z,97503.05
2018-08-09T21:33:52.046Z,97503.88
2018-08-09T21:36:27.562Z,97500.66
2018-08-09T21:39:09.203Z,97506.45
2018-08-09T21:41:47.558Z,97516.33
2018-08-09T21:44:25.838Z,97518.28
2018-08-09T21:47:03.711Z,97517.09
2018-08-09T21:49:41.184Z,97523.69
2018-08-09T21:52:26.352Z,97524.16
2018-08-09T21:55:03.598Z,97517.93
2018-08-09T21:57:44.178Z,97519.91
2018-08-09T22:03:20.990Z,97522.53
2018-08-09T22:08:46.712Z,97525.79
2018-08-09T22:11:28.906Z,97521.47
2018-08-09T22:16:17.918Z,97522.45
2018-08-09T22:18:56.900Z,97523.37
2018-08-09T22:24:17.000Z,97530.70
2018-08-09T22:26:56.994Z,97530.05
2018-08-09T22:29:35.562Z,97528.52
2018-08-09T22:32:20.375Z,97532.34
2018-08-09T22:34:57.937Z,97525.85
2018-08-09T22:37:34.829Z,97522.53
2018-08-09T22:42:57.840Z,97520.62
2018-08-09T22:45:34.417Z,97520.58
2018-08-09T22:48:14.182Z,97528.65
2018-08-09T22:50:55.126Z,97529.58
2018-08-09T22:53:38.561Z,97526.61
2018-08-09T22:56:16.007Z,97530.98
2018-08-09T22:58:54.035Z,97540.88
2018-08-09T23:01:32.289Z,97534.19
2018-08-09T23:04:21.200Z,97537.52
2018-08-09T23:07:03.976Z,97536.64
2018-08-09T23:09:41.564Z,97541.51
2018-08-09T23:12:21.837Z,97537.02
2018-08-09T23:14:56.746Z,97532.72
2018-08-09T23:17:31.941Z,97537.03
2018-08-09T23:20:06.588Z,97546.70
2018-08-09T23:22:41.960Z,97534.91
2018-08-09T23:25:21.605Z,97542.41
2018-08-09T23:28:00.896Z,97540.28
2018-08-09T23:30:39.801Z,97543.58
2018-08-09T23:33:15.129Z,97543.41
2018-08-09T23:35:54.782Z,97546.66
2018-08-09T23:38:28.749Z,97547.27
2018-08-09T23:43:46.100Z,97531.27
2018-08-09T23:46:24.175Z,97533.47
2018-08-09T23:49:02.733Z,97535.50
2018-08-09T23:51:38.793Z,97535.77
2018-08-09T23:54:16.533Z,97535.23
2018-08-09T23:56:59.058Z,97540.14
2018-08-09T23:59:35.158Z,97532.34
